createdAt,value
2018-09-27T00:01:38.824Z,99567.31
2018-09-27T00:04:08.293Z,99556.30
2018-09-27T00:06:37.742Z,99549.70
2018-09-27T00:09:07.855Z,99557.20
2018-09-27T00:11:37.271Z,99557.48
2018-09-27T00:14:06.665Z,99562.56
2018-09-27T00:16:36.080Z,99553.43
2018-09-27T00:19:05.483Z,99561.63
2018-09-27T00:21:34.889Z,99556.24
2018-09-27T00:24:04.322Z,99551.20
2018-09-27T00:26:33.716Z,99546.32
2018-09-27T00:29:03.152Z,99559.50
2018-09-27T00:31:32.592Z,99560.86
2018-09-27T00:34:01.993Z,99552.25
2018-09-27T00:36:31.387Z,99552.28
2018-09-27T00:39:00.839Z,99550.84
2018-09-27T00:41:30.231Z,99559.48
2018-09-27T00:43:59.670Z,99557.16
2018-09-27T00:46:29.079Z,99554.35
2018-09-27T00:48:58.473Z,99553.84
2018-09-27T00:51:27.895Z,99553.51
2018-09-27T00:53:57.411Z,99545.13
2018-09-27T00:56:26.831Z,99542.21
2018-09-27T00:58:56.231Z,99544.23
2018-09-27T01:01:25.657Z,99546.89
2018-09-27T01:03:55.059Z,99547.94
2018-09-27T01:06:24.473Z,99549.07
2018-09-27T01:08:54.343Z,99545.34
2018-09-27T01:11:23.750Z,99538.42
2018-09-27T01:13:53.140Z,99541.03
2018-09-27T01:16:22.556Z,99544.80
2018-09-27T01:18:51.984Z,99537.64
2018-09-27T01:21:21.398Z,99538.15
2018-09-27T01:23:50.812Z,99538.88
2018-09-27T01:26:20.199Z,99531.85
2018-09-27T01:28:49.605Z,99534.40
2018-09-27T01:31:19.016Z,99538.95
2018-09-27T01:33:48.455Z,99531.81
2018-09-27T01:36:17.880Z,99535.81
2018-09-27T01:38:47.275Z,99534.92
2018-09-27T01:41:16.772Z,99533.98
2018-09-27T01:43:46.278Z,99528.41
2018-09-27T01:46:15.693Z,99524.72
2018-09-27T01:48:45.168Z,99517.73
2018-09-27T01:51:14.576Z,99524.78
2018-09-27T01:53:44.028Z,99527.38
2018-09-27T01:56:13.449Z,99524.88
2018-09-27T01:58:42.903Z,99517.80
2018-09-27T02:01:12.299Z,99522.03
2018-09-27T02:03:41.719Z,99522.09
2018-09-27T02:06:11.117Z,99520.70
2018-09-27T02:08:40.519Z,99518.27
2018-09-27T02:11:09.982Z,99514.17
2018-09-27T02:13:39.405Z,99513.38
2018-09-27T02:16:08.827Z,99503.63
2018-09-27T02:18:38.215Z,99508.22
2018-09-27T02:21:07.671Z,99512.03
2018-09-27T02:23:37.109Z,99517.06
2018-09-27T02:26:06.564Z,99505.42
2018-09-27T02:28:36.264Z,99501.70
2018-09-27T02:31:05.702Z,99502.88
2018-09-27T02:33:35.110Z,99504.43
2018-09-27T02:36:04.641Z,99495.19
2018-09-27T02:38:34.299Z,99495.84
2018-09-27T02:41:03.695Z,99499.56
2018-09-27T02:43:33.090Z,99501.11
2018-09-27T02:46:02.519Z,99502.01
2018-09-27T02:48:32.092Z,99495.84
2018-09-27T02:51:01.489Z,99494.88
2018-09-27T02:53:30.958Z,99500.45
2018-09-27T02:56:00.355Z,99494.73
2018-09-27T02:58:29.791Z,99492.58
2018-09-27T03:00:59.207Z,99493.40
2018-09-27T03:03:28.600Z,99491.27
2018-09-27T03:05:57.995Z,99489.94
2018-09-27T03:08:27.423Z,99482.44
2018-09-27T03:10:56.843Z,99480.58
2018-09-27T03:13:26.239Z,99480.68
2018-09-27T03:15:55.651Z,99483.47
2018-09-27T03:18:25.060Z,99478.44
2018-09-27T03:20:54.490Z,99478.75
2018-09-27T03:23:23.904Z,99467.75
2018-09-27T03:25:53.334Z,99468.50
2018-09-27T03:28:22.730Z,99466.45
2018-09-27T03:30:52.223Z,99465.39
2018-09-27T03:33:21.947Z,99467.27
2018-09-27T03:35:51.568Z,99467.34
2018-09-27T03:38:20.963Z,99466.20
2018-09-27T03:40:50.472Z,99464.56
2018-09-27T03:43:19.953Z,99464.68
2018-09-27T03:45:49.385Z,99462.18
2018-09-27T03:48:18.784Z,99468.28
2018-09-27T03:50:48.441Z,99466.26
2018-09-27T03:53:17.981Z,99464.73
2018-09-27T03:55:47.619Z,99464.36
2018-09-27T03:58:17.251Z,99455.81
2018-09-27T04:00:47.011Z,99453.02
2018-09-27T04:03:16.675Z,99450.66
2018-09-27T04:05:46.361Z,99455.23
2018-09-27T04:08:15.984Z,99454.10
2018-09-27T04:10:45.664Z,99458.52
2018-09-27T04:13:15.236Z,99456.12
2018-09-27T04:15:44.961Z,99453.16
2018-09-27T04:18:14.627Z,99454.33
2018-09-27T04:20:51.575Z,99448.89
2018-09-27T04:23:23.344Z,99448.45
2018-09-27T04:25:53.025Z,99446.80
2018-09-27T04:28:23.035Z,99439.77
2018-09-27T04:30:52.456Z,99442.02
2018-09-27T04:33:21.860Z,99449.34
2018-09-27T04:35:51.273Z,99442.39
2018-09-27T04:38:20.765Z,99447.09
2018-09-27T04:40:50.194Z,99443.66
2018-09-27T04:43:19.689Z,99443.40
2018-09-27T04:45:49.142Z,99441.44
2018-09-27T04:48:18.639Z,99442.69
2018-09-27T04:50:48.039Z,99437.73
2018-09-27T04:53:17.516Z,99439.95
2018-09-27T04:55:47.124Z,99436.14
2018-09-27T04:58:16.592Z,99437.52
2018-09-27T05:00:46.113Z,99435.61
2018-09-27T05:03:15.787Z,99438.57
2018-09-27T05:05:45.275Z,99444.18
2018-09-27T05:08:14.720Z,99438.05
2018-09-27T05:10:44.244Z,99443.96
2018-09-27T05:13:13.740Z,99441.38
2018-09-27T05:15:43.372Z,99435.66
2018-09-27T05:18:12.802Z,99434.52
2018-09-27T05:20:42.198Z,99431.67
2018-09-27T05:23:11.675Z,99436.47
2018-09-27T05:25:41.071Z,99438.60
2018-09-27T05:28:10.608Z,99440.95
2018-09-27T05:30:40.032Z,99434.64
2018-09-27T05:33:09.439Z,99436.58
2018-09-27T05:35:38.831Z,99438.56
2018-09-27T05:38:08.251Z,99438.68
2018-09-27T05:40:37.643Z,99438.08
2018-09-27T05:43:07.407Z,99437.52
2018-09-27T05:45:37.073Z,99437.33
2018-09-27T05:48:06.479Z,99437.92
2018-09-27T05:50:35.873Z,99438.55
2018-09-27T05:53:05.400Z,99431.20
2018-09-27T05:55:34.812Z,99436.60
2018-09-27T05:58:04.232Z,99435.54
2018-09-27T06:00:33.644Z,99435.64
2018-09-27T06:03:03.073Z,99432.31
2018-09-27T06:05:32.480Z,99430.42
2018-09-27T06:08:01.868Z,99433.66
2018-09-27T06:10:31.259Z,99431.10
2018-09-27T06:13:00.698Z,99430.51
2018-09-27T06:15:30.129Z,99428.89
2018-09-27T06:17:59.500Z,99425.73
2018-09-27T06:20:28.904Z,99424.34
2018-09-27T06:22:58.327Z,99421.09
2018-09-27T06:25:27.949Z,99427.66
2018-09-27T06:27:57.369Z,99431.26
2018-09-27T06:30:26.859Z,99433.73
2018-09-27T06:32:56.284Z,99431.41
2018-09-27T06:35:25.712Z,99435.53
2018-09-27T06:37:55.116Z,99441.00
2018-09-27T06:40:24.791Z,99439.04
2018-09-27T06:42:54.181Z,99441.00
2018-09-27T06:45:23.596Z,99443.72
2018-09-27T06:47:53.204Z,99450.31
2018-09-27T06:50:22.613Z,99451.95
2018-09-27T06:52:52.005Z,99447.60
2018-09-27T06:55:21.655Z,99452.01
2018-09-27T06:57:50.815Z,99446.03
2018-09-27T07:00:20.220Z,99437.79
2018-09-27T07:02:49.636Z,99443.66
2018-09-27T07:05:19.027Z,99439.27
2018-09-27T07:07:48.448Z,99438.89
2018-09-27T07:10:18.716Z,99436.25
2018-09-27T07:12:48.153Z,99433.95
2018-09-27T07:15:17.504Z,99432.33
2018-09-27T07:17:46.920Z,99431.39
2018-09-27T07:20:16.358Z,99429.21
2018-09-27T07:22:45.747Z,99426.94
2018-09-27T07:25:15.208Z,99424.11
2018-09-27T07:27:44.616Z,99425.20
2018-09-27T07:30:14.068Z,99421.86
2018-09-27T07:32:43.710Z,99416.43
2018-09-27T07:35:13.104Z,99414.44
2018-09-27T07:37:42.505Z,99409.09
2018-09-27T07:40:11.951Z,99412.75
2018-09-27T07:42:41.377Z,99407.50
2018-09-27T07:45:10.809Z,99410.20
2018-09-27T07:47:40.207Z,99406.17
2018-09-27T07:50:09.656Z,99408.95
2018-09-27T07:52:39.791Z,99400.63
2018-09-27T07:55:09.225Z,99400.35
2018-09-27T07:57:39.977Z,99395.33
2018-09-27T08:02:38.026Z,99392.48
2018-09-27T08:05:07.419Z,99394.88
2018-09-27T08:07:36.852Z,99396.84
2018-09-27T08:10:06.264Z,99389.01
2018-09-27T08:12:35.691Z,99392.77
2018-09-27T08:15:05.170Z,99396.04
2018-09-27T08:17:34.649Z,99390.12
2018-09-27T08:20:04.406Z,99383.77
2018-09-27T08:22:33.863Z,99390.72
2018-09-27T08:25:03.314Z,99383.95
2018-09-27T08:27:32.844Z,99387.53
2018-09-27T08:30:02.261Z,99380.30
2018-09-27T08:32:31.681Z,99376.15
2018-09-27T08:35:01.144Z,99372.38
2018-09-27T08:37:30.585Z,99379.73
2018-09-27T08:39:59.988Z,99378.36
2018-09-27T08:42:29.419Z,99375.90
2018-09-27T08:44:59.025Z,99369.53
2018-09-27T08:47:28.236Z,99373.95
2018-09-27T08:49:57.657Z,99367.17
2018-09-27T08:52:27.063Z,99367.56
2018-09-27T08:54:56.535Z,99365.43
2018-09-27T08:57:26.047Z,99365.91
2018-09-27T08:59:55.396Z,99362.08
2018-09-27T09:02:24.811Z,99357.77
2018-09-27T09:04:54.228Z,99355.20
2018-09-27T09:07:23.647Z,99343.63
2018-09-27T09:09:53.045Z,99340.59
2018-09-27T09:12:22.455Z,99338.39
2018-09-27T09:14:51.852Z,99333.18
2018-09-27T09:17:21.291Z,99330.54
2018-09-27T09:19:50.693Z,99331.47
2018-09-27T09:22:20.128Z,99332.62
2018-09-27T09:24:49.539Z,99333.49
2018-09-27T09:27:18.927Z,99339.05
2018-09-27T09:29:48.390Z,99340.19
2018-09-27T09:32:17.791Z,99331.45
2018-09-27T09:34:47.252Z,99312.79
2018-09-27T09:37:16.699Z,99308.80
2018-09-27T09:39:46.149Z,99298.88
2018-09-27T09:42:15.560Z,99291.73
2018-09-27T09:44:44.991Z,99294.58
2018-09-27T09:47:14.436Z,99299.97
2018-09-27T09:49:43.887Z,99299.72
2018-09-27T09:52:13.328Z,99295.83
2018-09-27T09:54:42.728Z,99295.13
2018-09-27T09:57:12.171Z,99298.49
2018-09-27T09:59:41.781Z,99294.94
2018-09-27T10:02:11.450Z,99288.67
2018-09-27T10:04:41.155Z,99289.20
2018-09-27T10:07:10.802Z,99283.73
2018-09-27T10:09:40.376Z,99279.41
2018-09-27T10:12:10.074Z,99279.27
2018-09-27T10:14:39.792Z,99278.67
2018-09-27T10:17:09.476Z,99275.06
2018-09-27T10:19:39.122Z,99270.80
2018-09-27T10:22:08.968Z,99262.78
2018-09-27T10:24:38.523Z,99264.22
2018-09-27T10:27:08.187Z,99257.06
2018-09-27T10:29:37.786Z,99251.42
2018-09-27T10:32:07.353Z,99247.62
2018-09-27T10:34:37.015Z,99246.95
2018-09-27T10:37:06.643Z,99242.19
2018-09-27T10:39:36.224Z,99245.80
2018-09-27T10:42:05.900Z,99236.53
2018-09-27T10:44:35.570Z,99236.36
2018-09-27T10:47:05.502Z,99229.23
2018-09-27T10:49:35.260Z,99225.78
2018-09-27T10:52:04.866Z,99215.34
2018-09-27T10:54:34.556Z,99209.81
2018-09-27T10:57:04.315Z,99205.02
2018-09-27T10:59:33.837Z,99200.66
2018-09-27T11:02:03.235Z,99195.70
2018-09-27T11:04:32.651Z,99194.73
2018-09-27T11:07:02.064Z,99193.87
2018-09-27T11:09:31.485Z,99188.62
2018-09-27T11:12:00.908Z,99186.73
2018-09-27T11:14:30.311Z,99183.85
2018-09-27T11:16:59.776Z,99179.20
2018-09-27T11:19:29.206Z,99176.49
2018-09-27T11:21:58.660Z,99089.55
2018-09-27T11:24:28.100Z,99170.80
2018-09-27T11:26:57.503Z,99163.80
2018-09-27T11:29:32.127Z,99159.16
2018-09-27T11:32:06.732Z,99163.37
2018-09-27T11:34:36.144Z,99148.55
2018-09-27T11:37:05.581Z,99142.27
2018-09-27T11:39:34.989Z,99039.86
2018-09-27T11:42:04.407Z,99137.59
2018-09-27T11:44:33.833Z,99123.53
2018-09-27T11:47:03.260Z,99123.67
2018-09-27T11:49:32.757Z,99112.83
2018-09-27T11:52:02.084Z,99119.16
2018-09-27T11:54:31.503Z,99109.84
2018-09-27T11:57:00.900Z,99106.56
2018-09-27T11:59:30.345Z,99097.83
2018-09-27T12:01:59.745Z,99098.05
2018-09-27T12:04:29.198Z,99089.81
2018-09-27T12:06:58.588Z,99088.79
2018-09-27T12:09:28.000Z,99084.25
2018-09-27T12:11:58.052Z,99070.95
2018-09-27T12:14:27.435Z,99071.52
2018-09-27T12:16:56.896Z,99066.46
2018-09-27T12:19:26.673Z,99059.02
2018-09-27T12:21:56.064Z,99055.97
2018-09-27T12:24:25.556Z,99053.59
2018-09-27T12:26:55.000Z,99047.50
2018-09-27T12:29:24.431Z,99039.83
2018-09-27T12:31:53.824Z,99034.54
2018-09-27T12:34:23.272Z,99032.54
2018-09-27T12:36:52.690Z,99023.34
2018-09-27T12:39:22.146Z,99021.03
2018-09-27T12:41:51.592Z,99015.73
2018-09-27T12:44:20.965Z,99008.14
2018-09-27T12:46:50.445Z,99005.20
2018-09-27T12:49:19.832Z,99005.05
2018-09-27T12:51:49.426Z,99002.77
2018-09-27T12:54:18.780Z,98988.92
2018-09-27T12:56:48.192Z,98974.51
2018-09-27T12:59:17.619Z,98977.23
2018-09-27T13:01:47.365Z,98973.70
2018-09-27T13:04:16.941Z,98972.19
2018-09-27T13:06:46.367Z,98969.91
2018-09-27T13:09:15.902Z,98960.19
2018-09-27T13:11:45.291Z,98955.31
2018-09-27T13:14:14.761Z,98951.88
2018-09-27T13:16:44.291Z,98947.73
2018-09-27T13:19:13.761Z,98941.27
2018-09-27T13:21:43.210Z,98937.61
2018-09-27T13:24:12.557Z,98933.17
2018-09-27T13:26:42.075Z,98931.58
2018-09-27T13:29:11.460Z,98930.80
2018-09-27T13:31:40.904Z,98922.22
2018-09-27T13:34:10.392Z,98913.77
2018-09-27T13:36:39.731Z,98910.02
2018-09-27T13:39:10.570Z,98908.23
2018-09-27T13:41:40.611Z,98899.72
2018-09-27T13:44:10.121Z,98885.31
2018-09-27T13:46:39.556Z,98891.56
2018-09-27T13:49:09.120Z,98885.55
2018-09-27T13:51:38.471Z,98879.77
2018-09-27T13:54:07.887Z,98872.55
2018-09-27T13:56:37.301Z,98874.93
2018-09-27T13:59:07.530Z,98870.50
2018-09-27T14:01:36.971Z,98866.03
2018-09-27T14:04:06.623Z,98860.48
2018-09-27T14:06:36.056Z,98864.40
2018-09-27T14:09:07.441Z,98862.34
2018-09-27T14:11:36.859Z,98856.26
2018-09-27T14:14:06.534Z,98850.36
2018-09-27T14:16:35.962Z,98849.28
2018-09-27T14:19:05.454Z,98839.31
2018-09-27T14:21:34.869Z,98832.06
2018-09-27T14:24:04.338Z,98833.41
2018-09-27T14:26:33.735Z,98819.72
2018-09-27T14:29:03.161Z,98818.13
2018-09-27T14:31:32.681Z,98815.59
2018-09-27T14:34:02.136Z,98812.92
2018-09-27T14:36:31.576Z,98811.66
2018-09-27T14:39:01.034Z,98804.98
2018-09-27T14:41:30.498Z,98812.71
2018-09-27T14:43:59.898Z,98800.42
2018-09-27T14:46:29.324Z,98807.70
2018-09-27T14:48:58.743Z,98807.03
2018-09-27T14:51:28.392Z,98799.28
2018-09-27T14:53:57.827Z,98803.38
2018-09-27T14:56:27.283Z,98805.41
2018-09-27T14:58:56.735Z,98796.28
2018-09-27T15:01:26.163Z,98799.63
2018-09-27T15:03:55.576Z,98795.52
2018-09-27T15:06:24.989Z,98795.20
2018-09-27T15:08:54.380Z,98787.34
2018-09-27T15:11:23.823Z,98780.36
2018-09-27T15:13:53.245Z,98782.77
2018-09-27T15:16:22.694Z,98779.36
2018-09-27T15:18:52.078Z,98779.05
2018-09-27T15:21:21.478Z,98776.62
2018-09-27T15:23:50.907Z,98774.89
2018-09-27T15:26:20.309Z,98764.39
2018-09-27T15:28:49.724Z,98759.24
2018-09-27T15:31:19.116Z,98752.83
2018-09-27T15:33:48.533Z,98751.77
2018-09-27T15:36:17.970Z,98748.58
2018-09-27T15:38:47.360Z,98744.63
2018-09-27T15:41:16.785Z,98739.53
2018-09-27T15:43:46.229Z,98742.13
2018-09-27T15:46:15.651Z,98738.13
2018-09-27T15:48:45.076Z,98733.45
2018-09-27T15:51:14.486Z,98736.64
2018-09-27T15:53:43.956Z,98739.38
2018-09-27T15:56:13.401Z,98730.90
2018-09-27T15:58:42.861Z,98738.41
2018-09-27T16:01:12.252Z,98733.70
2018-09-27T16:03:41.712Z,98732.06
2018-09-27T16:06:11.104Z,98730.14
2018-09-27T16:08:40.549Z,98725.41
2018-09-27T16:11:09.973Z,98725.11
2018-09-27T16:13:39.385Z,98724.03
2018-09-27T16:16:08.853Z,98728.45
2018-09-27T16:18:38.259Z,98730.58
2018-09-27T16:21:07.696Z,98731.97
2018-09-27T16:23:37.195Z,98728.79
2018-09-27T16:26:06.599Z,98724.07
2018-09-27T16:28:36.077Z,98725.62
2018-09-27T16:31:05.510Z,98729.41
2018-09-27T16:33:34.983Z,98717.11
2018-09-27T16:36:04.348Z,98724.59
2018-09-27T16:38:33.755Z,98719.06
2018-09-27T16:41:03.168Z,98717.27
2018-09-27T16:43:32.715Z,98708.42
2018-09-27T16:46:02.112Z,98711.95
2018-09-27T16:48:31.547Z,98711.02
2018-09-27T16:51:00.964Z,98703.05
2018-09-27T16:53:30.622Z,98693.73
2018-09-27T16:55:59.952Z,98700.84
2018-09-27T16:58:29.376Z,98699.41
2018-09-27T17:00:58.795Z,98700.22
2018-09-27T17:03:28.233Z,98696.98
2018-09-27T17:05:57.698Z,98696.06
2018-09-27T17:08:27.095Z,98694.91
2018-09-27T17:10:56.569Z,98694.77
2018-09-27T17:13:26.005Z,98693.72
2018-09-27T17:15:55.473Z,98690.23
2018-09-27T17:18:24.899Z,98688.83
2018-09-27T17:20:54.326Z,98687.11
2018-09-27T17:23:23.808Z,98681.72
2018-09-27T17:25:53.317Z,98687.11
2018-09-27T17:28:22.736Z,98683.21
2018-09-27T17:30:52.191Z,98679.31
2018-09-27T17:33:21.650Z,98680.34
2018-09-27T17:35:51.148Z,98674.66
2018-09-27T17:38:20.600Z,98677.91
2018-09-27T17:40:53.089Z,98673.73
2018-09-27T17:43:22.623Z,98669.36
2018-09-27T17:45:52.117Z,98672.17
2018-09-27T17:48:22.270Z,98672.37
2018-09-27T17:50:52.015Z,98675.22
2018-09-27T17:53:22.165Z,98677.36
2018-09-27T17:55:52.045Z,98678.17
2018-09-27T17:58:22.089Z,98681.30
2018-09-27T18:00:52.600Z,98681.30
2018-09-27T18:03:22.450Z,98688.79
2018-09-27T18:05:52.949Z,98694.73
2018-09-27T18:08:23.795Z,98692.79
2018-09-27T18:10:54.577Z,98687.97
2018-09-27T18:13:25.656Z,98692.61
2018-09-27T18:15:57.916Z,98693.45
2018-09-27T18:18:29.992Z,98688.84
2018-09-27T18:21:01.777Z,98692.63
2018-09-27T18:23:34.002Z,98693.41
2018-09-27T18:26:06.775Z,98693.33
2018-09-27T18:28:39.322Z,98686.95
2018-09-27T18:31:11.299Z,98685.36
2018-09-27T18:33:43.137Z,98678.94
2018-09-27T18:36:15.948Z,98676.43
2018-09-27T18:38:49.188Z,98673.59
2018-09-27T18:41:22.631Z,98672.98
2018-09-27T18:43:55.731Z,98677.86
2018-09-27T18:46:28.024Z,98672.73
2018-09-27T18:49:01.007Z,98670.66
2018-09-27T18:51:34.020Z,98668.64
2018-09-27T18:54:07.181Z,98668.27
2018-09-27T18:56:40.099Z,98669.22
2018-09-27T18:59:13.187Z,98675.47
2018-09-27T19:01:46.224Z,98675.26
2018-09-27T19:04:19.252Z,98676.66
2018-09-27T19:06:52.139Z,98674.97
2018-09-27T19:09:25.792Z,98669.48
2018-09-27T19:11:58.991Z,98667.37
2018-09-27T19:14:32.324Z,98664.41
2018-09-27T19:17:05.585Z,98666.19
2018-09-27T19:19:38.646Z,98664.94
2018-09-27T19:22:11.732Z,98663.23
2018-09-27T19:24:44.813Z,98663.70
2018-09-27T19:27:17.998Z,98655.17
2018-09-27T19:29:51.154Z,98654.34
2018-09-27T19:32:24.555Z,98652.23
2018-09-27T19:34:57.666Z,98643.72
2018-09-27T19:37:30.752Z,98643.38
2018-09-27T19:40:04.095Z,98636.56
2018-09-27T19:42:36.976Z,98645.14
2018-09-27T19:45:10.154Z,98642.17
2018-09-27T19:47:43.963Z,98643.92
2018-09-27T19:50:16.904Z,98646.91
2018-09-27T19:52:51.213Z,98648.23
2018-09-27T19:55:25.001Z,98650.39
2018-09-27T19:57:57.888Z,98649.98
2018-09-27T20:00:30.941Z,98645.73
2018-09-27T20:03:03.914Z,98646.61
2018-09-27T20:05:36.956Z,98647.89
2018-09-27T20:08:09.730Z,98653.03
2018-09-27T20:10:42.657Z,98647.91
2018-09-27T20:13:15.548Z,98649.67
2018-09-27T20:15:48.202Z,98648.78
2018-09-27T20:18:21.424Z,98647.94
2018-09-27T20:20:54.536Z,98646.22
2018-09-27T20:23:27.699Z,98646.22
2018-09-27T20:26:00.630Z,98646.20
2018-09-27T20:28:32.622Z,98642.38
2018-09-27T20:31:03.965Z,98639.38
2018-09-27T20:33:36.323Z,98638.09
2018-09-27T20:36:08.014Z,98639.79
2018-09-27T20:38:37.921Z,98636.79
2018-09-27T20:41:07.607Z,98637.64
2018-09-27T20:43:37.240Z,98626.53
2018-09-27T20:46:06.700Z,98627.38
2018-09-27T20:48:36.189Z,98626.95
2018-09-27T20:51:05.623Z,98620.11
2018-09-27T20:53:35.225Z,98626.04
2018-09-27T20:56:04.677Z,98623.48
2018-09-27T20:58:34.089Z,98629.44
2018-09-27T21:01:03.499Z,98624.73
2018-09-27T21:03:32.900Z,98618.73
2018-09-27T21:06:02.309Z,98614.84
2018-09-27T21:08:31.702Z,98614.42
2018-09-27T21:11:01.116Z,98615.27
2018-09-27T21:13:30.614Z,98611.42
2018-09-27T21:16:00.044Z,98610.90
2018-09-27T21:18:29.662Z,98610.04
2018-09-27T21:20:59.292Z,98612.17
2018-09-27T21:23:28.752Z,98610.02
2018-09-27T21:25:58.162Z,98608.33
2018-09-27T21:28:27.687Z,98603.55
2018-09-27T21:30:57.371Z,98600.95
2018-09-27T21:33:27.539Z,98605.20
2018-09-27T21:35:56.956Z,98605.17
2018-09-27T21:38:26.395Z,98605.60
2018-09-27T21:40:55.784Z,98604.76
2018-09-27T21:43:25.279Z,98596.62
2018-09-27T21:45:54.648Z,98601.75
2018-09-27T21:48:24.239Z,98604.70
2018-09-27T21:50:53.635Z,98610.24
2018-09-27T21:53:23.104Z,98613.23
2018-09-27T21:55:52.504Z,98610.67
2018-09-27T21:58:21.911Z,98610.66
2018-09-27T22:00:52.484Z,98611.86
2018-09-27T22:03:23.390Z,98604.56
2018-09-27T22:05:53.016Z,98606.25
2018-09-27T22:08:22.529Z,98612.62
2018-09-27T22:10:51.923Z,98606.11
2018-09-27T22:13:21.335Z,98599.72
2018-09-27T22:15:50.799Z,98602.33
2018-09-27T22:18:20.212Z,98599.34
2018-09-27T22:20:49.665Z,98603.12
2018-09-27T22:23:19.089Z,98603.47
2018-09-27T22:25:48.647Z,98600.91
2018-09-27T22:28:18.047Z,98598.23
2018-09-27T22:30:47.435Z,98600.39
2018-09-27T22:33:16.908Z,98596.07
2018-09-27T22:35:46.308Z,98594.27
2018-09-27T22:38:15.761Z,98594.84
2018-09-27T22:40:45.156Z,98593.64
2018-09-27T22:43:14.567Z,98586.08
2018-09-27T22:45:43.956Z,98582.23
2018-09-27T22:48:13.344Z,98586.96
2018-09-27T22:50:42.761Z,98584.77
2018-09-27T22:53:12.200Z,98583.06
2018-09-27T22:55:41.586Z,98579.90
2018-09-27T22:58:11.087Z,98573.90
2018-09-27T23:00:40.579Z,98557.61
2018-09-27T23:03:09.983Z,98577.41
2018-09-27T23:05:39.387Z,98569.75
2018-09-27T23:08:08.882Z,98572.66
2018-09-27T23:10:38.270Z,98581.09
2018-09-27T23:13:07.668Z,98578.51
2018-09-27T23:15:37.111Z,98583.66
2018-09-27T23:18:06.605Z,98575.84
2018-09-27T23:20:35.985Z,98572.52
2018-09-27T23:23:05.379Z,98572.35
2018-09-27T23:25:34.776Z,98577.38
2018-09-27T23:28:04.250Z,98574.31
2018-09-27T23:30:33.659Z,98546.10
2018-09-27T23:33:03.051Z,98546.48
2018-09-27T23:35:32.427Z,98565.45
2018-09-27T23:38:01.908Z,98567.50
2018-09-27T23:40:31.307Z,98561.16
2018-09-27T23:43:00.776Z,98569.98
2018-09-27T23:45:30.352Z,98520.69
2018-09-27T23:47:59.740Z,98556.48
2018-09-27T23:50:29.122Z,98557.67
2018-09-27T23:52:58.530Z,98559.30
2018-09-27T23:55:27.927Z,98560.64
2018-09-27T23:57:57.375Z,98557.17
